sensor_id;sensor_type;location;lat;lon;timestamp;P1;durP1;ratioP1;P2;durP2;ratioP2
39078;SDS011;24829;49.208;12.080;2023-11-19T00:01:47;16.35;;;10.93;;
39078;SDS011;24829;49.208;12.080;2023-11-19T00:04:12;16.00;;;9.82;;
39078;SDS011;24829;49.208;12.080;2023-11-19T00:06:38;16.55;;;10.73;;
39078;SDS011;24829;49.208;12.080;2023-11-19T00:09:04;17.00;;;10.75;;
39078;SDS011;24829;49.208;12.080;2023-11-19T00:11:30;15.50;;;10.05;;
39078;SDS011;24829;49.208;12.080;2023-11-19T00:13:55;17.13;;;9.95;;
39078;SDS011;24829;49.208;12.080;2023-11-19T00:16:21;15.18;;;10.35;;
39078;SDS011;24829;49.208;12.080;2023-11-19T00:18:46;16.83;;;10.43;;
39078;SDS011;24829;49.208;12.080;2023-11-19T00:21:12;16.20;;;9.73;;
39078;SDS011;24829;49.208;12.080;2023-11-19T00:23:37;20.77;;;11.70;;
39078;SDS011;24829;49.208;12.080;2023-11-19T00:26:03;16.23;;;9.00;;
39078;SDS011;24829;49.208;12.080;2023-11-19T00:28:31;15.10;;;9.60;;
39078;SDS011;24829;49.208;12.080;2023-11-19T00:30:58;16.15;;;10.25;;
39078;SDS011;24829;49.208;12.080;2023-11-19T00:33:23;16.90;;;10.50;;
39078;SDS011;24829;49.208;12.080;2023-11-19T00:35:49;16.15;;;9.85;;
39078;SDS011;24829;49.208;12.080;2023-11-19T00:38:15;16.45;;;10.35;;
39078;SDS011;24829;49.208;12.080;2023-11-19T00:40:41;17.55;;;10.73;;
39078;SDS011;24829;49.208;12.080;2023-11-19T00:43:07;17.35;;;11.32;;
39078;SDS011;24829;49.208;12.080;2023-11-19T00:45:32;15.15;;;10.38;;
39078;SDS011;24829;49.208;12.080;2023-11-19T00:47:58;14.60;;;10.10;;
39078;SDS011;24829;49.208;12.080;2023-11-19T00:50:26;16.15;;;9.90;;
39078;SDS011;24829;49.208;12.080;2023-11-19T00:52:52;15.75;;;9.85;;
39078;SDS011;24829;49.208;12.080;2023-11-19T00:55:18;12.98;;;9.02;;
39078;SDS011;24829;49.208;12.080;2023-11-19T00:57:43;13.55;;;9.13;;
39078;SDS011;24829;49.208;12.080;2023-11-19T01:00:09;15.35;;;9.07;;
39078;SDS011;24829;49.208;12.080;2023-11-19T01:02:47;14.57;;;9.85;;
39078;SDS011;24829;49.208;12.080;2023-11-19T01:05:14;13.02;;;8.73;;
39078;SDS011;24829;49.208;12.080;2023-11-19T01:07:40;11.02;;;7.50;;
39078;SDS011;24829;49.208;12.080;2023-11-19T01:10:06;8.90;;;6.13;;
39078;SDS011;24829;49.208;12.080;2023-11-19T01:12:33;10.45;;;6.50;;
39078;SDS011;24829;49.208;12.080;2023-11-19T01:14:59;10.95;;;6.95;;
39078;SDS011;24829;49.208;12.080;2023-11-19T01:17:26;11.13;;;7.00;;
39078;SDS011;24829;49.208;12.080;2023-11-19T01:19:51;9.15;;;6.32;;
39078;SDS011;24829;49.208;12.080;2023-11-19T01:22:17;9.75;;;5.47;;
39078;SDS011;24829;49.208;12.080;2023-11-19T01:24:44;8.93;;;5.88;;
39078;SDS011;24829;49.208;12.080;2023-11-19T01:27:09;7.75;;;6.05;;
39078;SDS011;24829;49.208;12.080;2023-11-19T01:29:35;7.28;;;4.85;;
39078;SDS011;24829;49.208;12.080;2023-11-19T01:32:01;8.15;;;4.93;;
39078;SDS011;24829;49.208;12.080;2023-11-19T01:34:26;7.45;;;5.00;;
39078;SDS011;24829;49.208;12.080;2023-11-19T01:36:52;7.90;;;5.38;;
39078;SDS011;24829;49.208;12.080;2023-11-19T01:39:18;8.15;;;5.72;;
39078;SDS011;24829;49.208;12.080;2023-11-19T01:41:44;7.68;;;4.82;;
39078;SDS011;24829;49.208;12.080;2023-11-19T01:44:10;7.95;;;5.50;;
39078;SDS011;24829;49.208;12.080;2023-11-19T01:46:40;6.20;;;4.40;;
39078;SDS011;24829;49.208;12.080;2023-11-19T01:49:07;5.93;;;4.30;;
39078;SDS011;24829;49.208;12.080;2023-11-19T01:51:33;6.22;;;4.45;;
39078;SDS011;24829;49.208;12.080;2023-11-19T01:53:59;6.82;;;4.03;;
39078;SDS011;24829;49.208;12.080;2023-11-19T01:56:26;4.93;;;3.45;;
39078;SDS011;24829;49.208;12.080;2023-11-19T01:58:53;4.95;;;3.33;;
39078;SDS011;24829;49.208;12.080;2023-11-19T02:01:19;6.95;;;3.97;;
39078;SDS011;24829;49.208;12.080;2023-11-19T02:03:45;5.93;;;3.42;;
39078;SDS011;24829;49.208;12.080;2023-11-19T02:06:12;5.93;;;3.55;;
39078;SDS011;24829;49.208;12.080;2023-11-19T02:08:38;6.00;;;3.38;;
39078;SDS011;24829;49.208;12.080;2023-11-19T02:11:04;4.45;;;3.05;;
39078;SDS011;24829;49.208;12.080;2023-11-19T02:13:32;4.90;;;2.72;;
39078;SDS011;24829;49.208;12.080;2023-11-19T02:15:58;4.50;;;3.10;;
39078;SDS011;24829;49.208;12.080;2023-11-19T02:18:25;4.30;;;2.97;;
39078;SDS011;24829;49.208;12.080;2023-11-19T02:20:58;4.00;;;2.78;;
39078;SDS011;24829;49.208;12.080;2023-11-19T02:23:26;4.22;;;2.75;;
39078;SDS011;24829;49.208;12.080;2023-11-19T02:28:27;4.32;;;2.85;;
39078;SDS011;24829;49.208;12.080;2023-11-19T02:30:53;3.30;;;2.08;;
39078;SDS011;24829;49.208;12.080;2023-11-19T02:33:18;4.25;;;3.08;;
39078;SDS011;24829;49.208;12.080;2023-11-19T02:35:44;3.58;;;2.42;;
39078;SDS011;24829;49.208;12.080;2023-11-19T02:38:10;3.85;;;2.17;;
39078;SDS011;24829;49.208;12.080;2023-11-19T02:40:36;3.33;;;2.30;;
39078;SDS011;24829;49.208;12.080;2023-11-19T02:43:01;3.00;;;2.17;;
39078;SDS011;24829;49.208;12.080;2023-11-19T02:45:29;3.53;;;2.63;;
39078;SDS011;24829;49.208;12.080;2023-11-19T02:47:56;3.28;;;2.40;;
39078;SDS011;24829;49.208;12.080;2023-11-19T02:50:22;3.50;;;2.00;;
39078;SDS011;24829;49.208;12.080;2023-11-19T02:52:50;3.50;;;2.65;;
39078;SDS011;24829;49.208;12.080;2023-11-19T02:55:17;3.63;;;2.20;;
39078;SDS011;24829;49.208;12.080;2023-11-19T02:57:43;3.08;;;1.98;;
39078;SDS011;24829;49.208;12.080;2023-11-19T03:00:16;4.03;;;2.22;;
39078;SDS011;24829;49.208;12.080;2023-11-19T03:02:44;3.60;;;2.58;;
39078;SDS011;24829;49.208;12.080;2023-11-19T03:05:14;3.53;;;2.45;;
39078;SDS011;24829;49.208;12.080;2023-11-19T03:07:41;6.35;;;2.00;;
39078;SDS011;24829;49.208;12.080;2023-11-19T03:10:08;4.47;;;2.85;;
39078;SDS011;24829;49.208;12.080;2023-11-19T03:12:38;2.95;;;1.70;;
39078;SDS011;24829;49.208;12.080;2023-11-19T03:15:04;3.35;;;1.85;;
39078;SDS011;24829;49.208;12.080;2023-11-19T03:17:30;3.10;;;1.85;;
39078;SDS011;24829;49.208;12.080;2023-11-19T03:19:56;4.32;;;1.55;;
39078;SDS011;24829;49.208;12.080;2023-11-19T03:22:21;3.28;;;1.65;;
39078;SDS011;24829;49.208;12.080;2023-11-19T03:24:47;2.75;;;1.80;;
39078;SDS011;24829;49.208;12.080;2023-11-19T03:27:16;2.50;;;1.75;;
39078;SDS011;24829;49.208;12.080;2023-11-19T03:29:41;2.25;;;1.60;;
39078;SDS011;24829;49.208;12.080;2023-11-19T03:32:07;2.95;;;1.73;;
39078;SDS011;24829;49.208;12.080;2023-11-19T03:34:32;2.85;;;1.48;;
39078;SDS011;24829;49.208;12.080;2023-11-19T03:36:58;2.33;;;1.58;;
39078;SDS011;24829;49.208;12.080;2023-11-19T03:39:24;2.70;;;1.73;;
39078;SDS011;24829;49.208;12.080;2023-11-19T03:41:50;5.55;;;1.55;;
39078;SDS011;24829;49.208;12.080;2023-11-19T03:44:16;2.35;;;1.60;;
39078;SDS011;24829;49.208;12.080;2023-11-19T03:46:41;2.85;;;1.67;;
39078;SDS011;24829;49.208;12.080;2023-11-19T03:49:07;3.72;;;1.52;;
39078;SDS011;24829;49.208;12.080;2023-11-19T03:51:33;1.63;;;1.30;;
39078;SDS011;24829;49.208;12.080;2023-11-19T03:53:59;2.72;;;1.70;;
39078;SDS011;24829;49.208;12.080;2023-11-19T03:56:25;1.85;;;1.40;;
39078;SDS011;24829;49.208;12.080;2023-11-19T03:58:52;2.72;;;1.48;;
39078;SDS011;24829;49.208;12.080;2023-11-19T04:01:18;2.72;;;2.10;;
39078;SDS011;24829;49.208;12.080;2023-11-19T04:03:43;3.03;;;1.90;;
39078;SDS011;24829;49.208;12.080;2023-11-19T04:06:09;2.35;;;1.73;;
39078;SDS011;24829;49.208;12.080;2023-11-19T04:08:35;2.53;;;1.58;;
39078;SDS011;24829;49.208;12.080;2023-11-19T04:11:00;3.22;;;2.05;;
39078;SDS011;24829;49.208;12.080;2023-11-19T04:13:28;2.78;;;1.90;;
39078;SDS011;24829;49.208;12.080;2023-11-19T04:15:53;3.03;;;1.63;;
39078;SDS011;24829;49.208;12.080;2023-11-19T04:18:19;2.85;;;2.08;;
39078;SDS011;24829;49.208;12.080;2023-11-19T04:20:44;4.45;;;2.40;;
39078;SDS011;24829;49.208;12.080;2023-11-19T04:23:10;2.50;;;1.80;;
39078;SDS011;24829;49.208;12.080;2023-11-19T04:25:36;2.58;;;1.70;;
39078;SDS011;24829;49.208;12.080;2023-11-19T04:28:02;3.08;;;2.00;;
39078;SDS011;24829;49.208;12.080;2023-11-19T04:30:27;2.85;;;1.90;;
39078;SDS011;24829;49.208;12.080;2023-11-19T04:32:53;4.40;;;2.47;;
39078;SDS011;24829;49.208;12.080;2023-11-19T04:35:19;4.03;;;2.42;;
39078;SDS011;24829;49.208;12.080;2023-11-19T04:37:44;3.85;;;2.88;;
39078;SDS011;24829;49.208;12.080;2023-11-19T04:40:10;3.58;;;2.35;;
39078;SDS011;24829;49.208;12.080;2023-11-19T04:42:37;4.95;;;3.55;;
39078;SDS011;24829;49.208;12.080;2023-11-19T04:45:05;4.55;;;3.60;;
39078;SDS011;24829;49.208;12.080;2023-11-19T04:47:32;5.22;;;3.75;;
39078;SDS011;24829;49.208;12.080;2023-11-19T04:50:01;5.28;;;3.53;;
39078;SDS011;24829;49.208;12.080;2023-11-19T04:52:28;3.70;;;2.92;;
39078;SDS011;24829;49.208;12.080;2023-11-19T04:54:54;4.00;;;3.00;;
39078;SDS011;24829;49.208;12.080;2023-11-19T04:57:19;5.05;;;3.22;;
39078;SDS011;24829;49.208;12.080;2023-11-19T04:59:45;4.22;;;2.83;;
39078;SDS011;24829;49.208;12.080;2023-11-19T05:02:10;4.05;;;3.05;;
39078;SDS011;24829;49.208;12.080;2023-11-19T05:04:36;3.95;;;2.72;;
39078;SDS011;24829;49.208;12.080;2023-11-19T05:07:04;3.15;;;2.25;;
39078;SDS011;24829;49.208;12.080;2023-11-19T05:09:30;3.70;;;2.75;;
39078;SDS011;24829;49.208;12.080;2023-11-19T05:11:56;3.80;;;2.13;;
39078;SDS011;24829;49.208;12.080;2023-11-19T05:14:22;3.45;;;2.35;;
39078;SDS011;24829;49.208;12.080;2023-11-19T05:16:49;2.72;;;2.03;;
39078;SDS011;24829;49.208;12.080;2023-11-19T05:19:15;4.07;;;2.88;;
39078;SDS011;24829;49.208;12.080;2023-11-19T05:21:43;4.45;;;2.78;;
39078;SDS011;24829;49.208;12.080;2023-11-19T05:24:08;4.50;;;3.50;;
39078;SDS011;24829;49.208;12.080;2023-11-19T05:26:34;4.93;;;3.92;;
39078;SDS011;24829;49.208;12.080;2023-11-19T05:29:00;5.38;;;3.58;;
39078;SDS011;24829;49.208;12.080;2023-11-19T05:31:25;4.70;;;3.58;;
39078;SDS011;24829;49.208;12.080;2023-11-19T05:33:51;5.75;;;3.58;;
39078;SDS011;24829;49.208;12.080;2023-11-19T05:36:17;4.55;;;3.63;;
39078;SDS011;24829;49.208;12.080;2023-11-19T05:38:42;4.40;;;3.10;;
39078;SDS011;24829;49.208;12.080;2023-11-19T05:41:09;4.97;;;4.03;;
39078;SDS011;24829;49.208;12.080;2023-11-19T05:43:35;4.63;;;3.35;;
39078;SDS011;24829;49.208;12.080;2023-11-19T05:46:01;5.80;;;4.13;;
39078;SDS011;24829;49.208;12.080;2023-11-19T05:48:26;6.22;;;4.88;;
39078;SDS011;24829;49.208;12.080;2023-11-19T05:50:52;6.18;;;4.78;;
39078;SDS011;24829;49.208;12.080;2023-11-19T05:53:18;5.45;;;4.50;;
39078;SDS011;24829;49.208;12.080;2023-11-19T05:55:44;6.72;;;4.88;;
39078;SDS011;24829;49.208;12.080;2023-11-19T05:58:19;7.55;;;5.25;;
39078;SDS011;24829;49.208;12.080;2023-11-19T06:00:47;8.52;;;5.70;;
39078;SDS011;24829;49.208;12.080;2023-11-19T06:03:13;8.85;;;6.30;;
39078;SDS011;24829;49.208;12.080;2023-11-19T06:05:38;13.00;;;6.35;;
39078;SDS011;24829;49.208;12.080;2023-11-19T06:08:04;8.23;;;6.20;;
39078;SDS011;24829;49.208;12.080;2023-11-19T06:10:31;11.32;;;7.28;;
39078;SDS011;24829;49.208;12.080;2023-11-19T06:12:58;11.02;;;7.60;;
39078;SDS011;24829;49.208;12.080;2023-11-19T06:15:24;12.30;;;7.18;;
39078;SDS011;24829;49.208;12.080;2023-11-19T06:17:51;11.07;;;6.85;;
39078;SDS011;24829;49.208;12.080;2023-11-19T06:20:17;9.98;;;7.10;;
39078;SDS011;24829;49.208;12.080;2023-11-19T06:22:44;10.25;;;7.45;;
39078;SDS011;24829;49.208;12.080;2023-11-19T06:25:10;10.48;;;7.32;;
39078;SDS011;24829;49.208;12.080;2023-11-19T06:27:37;15.00;;;9.60;;
39078;SDS011;24829;49.208;12.080;2023-11-19T06:30:03;14.07;;;9.43;;
39078;SDS011;24829;49.208;12.080;2023-11-19T06:32:29;14.35;;;9.07;;
39078;SDS011;24829;49.208;12.080;2023-11-19T06:34:54;11.98;;;8.27;;
39078;SDS011;24829;49.208;12.080;2023-11-19T06:37:21;11.32;;;8.68;;
39078;SDS011;24829;49.208;12.080;2023-11-19T06:39:47;15.68;;;8.85;;
39078;SDS011;24829;49.208;12.080;2023-11-19T06:42:12;13.20;;;9.05;;
39078;SDS011;24829;49.208;12.080;2023-11-19T06:44:38;14.73;;;9.27;;
39078;SDS011;24829;49.208;12.080;2023-11-19T06:47:04;12.50;;;8.35;;
39078;SDS011;24829;49.208;12.080;2023-11-19T06:49:29;13.98;;;8.90;;
39078;SDS011;24829;49.208;12.080;2023-11-19T06:51:55;18.92;;;9.07;;
39078;SDS011;24829;49.208;12.080;2023-11-19T06:54:21;13.23;;;8.45;;
39078;SDS011;24829;49.208;12.080;2023-11-19T06:56:47;16.95;;;8.40;;
39078;SDS011;24829;49.208;12.080;2023-11-19T06:59:14;17.08;;;9.43;;
39078;SDS011;24829;49.208;12.080;2023-11-19T07:01:39;13.65;;;9.75;;
39078;SDS011;24829;49.208;12.080;2023-11-19T07:04:08;16.70;;;10.05;;
39078;SDS011;24829;49.208;12.080;2023-11-19T07:06:37;15.77;;;8.43;;
39078;SDS011;24829;49.208;12.080;2023-11-19T07:09:03;17.45;;;9.50;;
39078;SDS011;24829;49.208;12.080;2023-11-19T07:11:43;17.63;;;9.38;;
39078;SDS011;24829;49.208;12.080;2023-11-19T07:14:10;14.02;;;8.95;;
39078;SDS011;24829;49.208;12.080;2023-11-19T07:16:36;14.23;;;8.55;;
39078;SDS011;24829;49.208;12.080;2023-11-19T07:19:03;16.02;;;8.57;;
39078;SDS011;24829;49.208;12.080;2023-11-19T07:21:30;15.75;;;8.90;;
39078;SDS011;24829;49.208;12.080;2023-11-19T07:23:56;13.40;;;7.53;;
39078;SDS011;24829;49.208;12.080;2023-11-19T07:26:21;15.57;;;7.93;;
39078;SDS011;24829;49.208;12.080;2023-11-19T07:28:48;12.82;;;7.95;;
39078;SDS011;24829;49.208;12.080;2023-11-19T07:31:16;11.43;;;7.40;;
39078;SDS011;24829;49.208;12.080;2023-11-19T07:33:45;12.98;;;8.27;;
39078;SDS011;24829;49.208;12.080;2023-11-19T07:36:12;11.93;;;6.80;;
39078;SDS011;24829;49.208;12.080;2023-11-19T07:38:38;12.30;;;7.50;;
39078;SDS011;24829;49.208;12.080;2023-11-19T07:41:04;10.52;;;7.25;;
39078;SDS011;24829;49.208;12.080;2023-11-19T07:43:31;7.93;;;6.00;;
39078;SDS011;24829;49.208;12.080;2023-11-19T07:45:57;9.45;;;6.05;;
39078;SDS011;24829;49.208;12.080;2023-11-19T07:48:24;11.65;;;7.50;;
39078;SDS011;24829;49.208;12.080;2023-11-19T07:50:51;7.95;;;4.88;;
39078;SDS011;24829;49.208;12.080;2023-11-19T07:53:18;10.05;;;6.20;;
39078;SDS011;24829;49.208;12.080;2023-11-19T07:55:44;10.25;;;6.20;;
39078;SDS011;24829;49.208;12.080;2023-11-19T07:58:10;9.57;;;5.72;;
39078;SDS011;24829;49.208;12.080;2023-11-19T08:00:36;9.32;;;6.13;;
39078;SDS011;24829;49.208;12.080;2023-11-19T08:03:02;8.80;;;5.40;;
39078;SDS011;24829;49.208;12.080;2023-11-19T08:05:29;8.85;;;5.57;;
39078;SDS011;24829;49.208;12.080;2023-11-19T08:07:54;8.10;;;5.53;;
39078;SDS011;24829;49.208;12.080;2023-11-19T08:10:20;7.38;;;5.07;;
39078;SDS011;24829;49.208;12.080;2023-11-19T08:12:46;6.28;;;5.00;;
39078;SDS011;24829;49.208;12.080;2023-11-19T08:15:12;9.52;;;6.50;;
39078;SDS011;24829;49.208;12.080;2023-11-19T08:17:37;7.70;;;5.03;;
39078;SDS011;24829;49.208;12.080;2023-11-19T08:20:03;8.27;;;5.60;;
39078;SDS011;24829;49.208;12.080;2023-11-19T08:22:30;14.73;;;7.78;;
39078;SDS011;24829;49.208;12.080;2023-11-19T08:24:56;9.20;;;6.00;;
39078;SDS011;24829;49.208;12.080;2023-11-19T08:27:22;7.88;;;5.30;;
39078;SDS011;24829;49.208;12.080;2023-11-19T08:29:54;7.30;;;4.85;;
39078;SDS011;24829;49.208;12.080;2023-11-19T08:32:23;7.90;;;5.97;;
39078;SDS011;24829;49.208;12.080;2023-11-19T08:34:49;7.32;;;5.47;;
39078;SDS011;24829;49.208;12.080;2023-11-19T08:37:15;8.68;;;6.00;;
39078;SDS011;24829;49.208;12.080;2023-11-19T08:39:43;10.05;;;6.28;;
39078;SDS011;24829;49.208;12.080;2023-11-19T08:42:08;10.30;;;6.80;;
39078;SDS011;24829;49.208;12.080;2023-11-19T08:44:34;10.20;;;6.82;;
39078;SDS011;24829;49.208;12.080;2023-11-19T08:46:59;10.25;;;6.68;;
39078;SDS011;24829;49.208;12.080;2023-11-19T08:49:25;11.57;;;7.97;;
39078;SDS011;24829;49.208;12.080;2023-11-19T08:51:51;12.90;;;7.63;;
39078;SDS011;24829;49.208;12.080;2023-11-19T08:54:16;11.25;;;7.93;;
39078;SDS011;24829;49.208;12.080;2023-11-19T08:56:42;10.73;;;7.05;;
39078;SDS011;24829;49.208;12.080;2023-11-19T08:59:07;13.13;;;7.85;;
39078;SDS011;24829;49.208;12.080;2023-11-19T09:01:33;12.02;;;8.07;;
39078;SDS011;24829;49.208;12.080;2023-11-19T09:03:59;13.85;;;7.97;;
39078;SDS011;24829;49.208;12.080;2023-11-19T09:06:25;12.95;;;8.75;;
39078;SDS011;24829;49.208;12.080;2023-11-19T09:08:50;12.20;;;8.40;;
39078;SDS011;24829;49.208;12.080;2023-11-19T09:11:16;12.35;;;8.30;;
39078;SDS011;24829;49.208;12.080;2023-11-19T09:13:42;9.48;;;6.63;;
39078;SDS011;24829;49.208;12.080;2023-11-19T09:16:07;10.48;;;6.70;;
39078;SDS011;24829;49.208;12.080;2023-11-19T09:18:34;11.05;;;6.45;;
39078;SDS011;24829;49.208;12.080;2023-11-19T09:21:00;9.48;;;6.03;;
39078;SDS011;24829;49.208;12.080;2023-11-19T09:23:25;9.55;;;6.93;;
39078;SDS011;24829;49.208;12.080;2023-11-19T09:25:52;12.20;;;7.13;;
39078;SDS011;24829;49.208;12.080;2023-11-19T09:28:18;14.23;;;8.20;;
39078;SDS011;24829;49.208;12.080;2023-11-19T09:30:44;13.50;;;8.95;;
39078;SDS011;24829;49.208;12.080;2023-11-19T09:33:09;14.75;;;9.30;;
39078;SDS011;24829;49.208;12.080;2023-11-19T09:35:35;14.65;;;10.02;;
39078;SDS011;24829;49.208;12.080;2023-11-19T09:38:01;15.23;;;9.95;;
39078;SDS011;24829;49.208;12.080;2023-11-19T09:40:27;14.27;;;9.40;;
39078;SDS011;24829;49.208;12.080;2023-11-19T09:42:53;13.75;;;9.13;;
39078;SDS011;24829;49.208;12.080;2023-11-19T09:45:20;17.35;;;10.05;;
39078;SDS011;24829;49.208;12.080;2023-11-19T09:47:46;20.02;;;12.40;;
39078;SDS011;24829;49.208;12.080;2023-11-19T09:50:16;18.58;;;11.10;;
39078;SDS011;24829;49.208;12.080;2023-11-19T09:52:46;18.65;;;11.95;;
39078;SDS011;24829;49.208;12.080;2023-11-19T09:55:12;21.67;;;12.95;;
39078;SDS011;24829;49.208;12.080;2023-11-19T09:57:39;17.60;;;11.90;;
39078;SDS011;24829;49.208;12.080;2023-11-19T10:00:08;19.27;;;12.50;;
39078;SDS011;24829;49.208;12.080;2023-11-19T10:02:36;23.20;;;13.55;;
39078;SDS011;24829;49.208;12.080;2023-11-19T10:05:06;22.13;;;13.55;;
39078;SDS011;24829;49.208;12.080;2023-11-19T10:07:33;22.83;;;13.18;;
39078;SDS011;24829;49.208;12.080;2023-11-19T10:09:59;18.02;;;12.18;;
39078;SDS011;24829;49.208;12.080;2023-11-19T10:12:26;18.48;;;12.55;;
39078;SDS011;24829;49.208;12.080;2023-11-19T10:14:53;18.90;;;12.13;;
39078;SDS011;24829;49.208;12.080;2023-11-19T10:17:32;20.20;;;12.88;;
39078;SDS011;24829;49.208;12.080;2023-11-19T10:19:59;20.00;;;12.73;;
39078;SDS011;24829;49.208;12.080;2023-11-19T10:22:24;18.92;;;12.93;;
39078;SDS011;24829;49.208;12.080;2023-11-19T10:24:52;20.33;;;13.05;;
39078;SDS011;24829;49.208;12.080;2023-11-19T10:27:18;22.00;;;13.80;;
39078;SDS011;24829;49.208;12.080;2023-11-19T10:29:44;19.13;;;12.52;;
39078;SDS011;24829;49.208;12.080;2023-11-19T10:32:12;20.20;;;13.10;;
39078;SDS011;24829;49.208;12.080;2023-11-19T10:34:38;19.77;;;13.93;;
39078;SDS011;24829;49.208;12.080;2023-11-19T10:37:04;16.58;;;12.05;;
39078;SDS011;24829;49.208;12.080;2023-11-19T10:39:51;21.00;;;13.32;;
39078;SDS011;24829;49.208;12.080;2023-11-19T10:42:20;18.40;;;12.05;;
39078;SDS011;24829;49.208;12.080;2023-11-19T10:44:46;21.25;;;12.63;;
39078;SDS011;24829;49.208;12.080;2023-11-19T10:47:13;19.05;;;13.38;;
39078;SDS011;24829;49.208;12.080;2023-11-19T10:49:42;18.95;;;13.55;;
39078;SDS011;24829;49.208;12.080;2023-11-19T10:52:08;20.35;;;12.88;;
39078;SDS011;24829;49.208;12.080;2023-11-19T10:54:34;20.08;;;13.02;;
39078;SDS011;24829;49.208;12.080;2023-11-19T10:57:00;21.25;;;12.88;;
39078;SDS011;24829;49.208;12.080;2023-11-19T10:59:28;16.70;;;13.15;;
39078;SDS011;24829;49.208;12.080;2023-11-19T11:01:56;24.02;;;14.15;;
39078;SDS011;24829;49.208;12.080;2023-11-19T11:04:22;21.27;;;14.20;;
39078;SDS011;24829;49.208;12.080;2023-11-19T11:06:50;22.55;;;13.93;;
39078;SDS011;24829;49.208;12.080;2023-11-19T11:09:16;20.90;;;14.48;;
39078;SDS011;24829;49.208;12.080;2023-11-19T11:11:44;24.10;;;14.32;;
39078;SDS011;24829;49.208;12.080;2023-11-19T11:14:12;23.63;;;13.57;;
39078;SDS011;24829;49.208;12.080;2023-11-19T11:16:44;19.38;;;13.15;;
39078;SDS011;24829;49.208;12.080;2023-11-19T11:19:13;17.90;;;12.65;;
39078;SDS011;24829;49.208;12.080;2023-11-19T11:21:42;20.52;;;13.75;;
39078;SDS011;24829;49.208;12.080;2023-11-19T11:33:05;28.20;;;17.27;;
39078;SDS011;24829;49.208;12.080;2023-11-19T11:38:37;24.77;;;15.20;;
39078;SDS011;24829;49.208;12.080;2023-11-19T11:41:25;22.65;;;14.15;;
39078;SDS011;24829;49.208;12.080;2023-11-19T11:43:53;24.80;;;14.98;;
39078;SDS011;24829;49.208;12.080;2023-11-19T11:48:57;18.92;;;13.20;;
39078;SDS011;24829;49.208;12.080;2023-11-19T11:54:09;11.60;;;8.13;;
39078;SDS011;24829;49.208;12.080;2023-11-19T11:56:38;13.52;;;7.88;;
39078;SDS011;24829;49.208;12.080;2023-11-19T11:59:24;14.68;;;9.15;;
39078;SDS011;24829;49.208;12.080;2023-11-19T12:01:58;11.27;;;8.02;;
39078;SDS011;24829;49.208;12.080;2023-11-19T12:04:26;10.93;;;7.63;;
39078;SDS011;24829;49.208;12.080;2023-11-19T12:09:32;8.77;;;5.40;;
39078;SDS011;24829;49.208;12.080;2023-11-19T12:12:11;8.55;;;5.28;;
39078;SDS011;24829;49.208;12.080;2023-11-19T12:15:01;9.75;;;4.20;;
39078;SDS011;24829;49.208;12.080;2023-11-19T12:20:07;6.07;;;3.33;;
39078;SDS011;24829;49.208;12.080;2023-11-19T12:22:40;12.70;;;8.15;;
39078;SDS011;24829;49.208;12.080;2023-11-19T12:25:07;16.13;;;9.60;;
39078;SDS011;24829;49.208;12.080;2023-11-19T12:27:35;13.05;;;9.38;;
39078;SDS011;24829;49.208;12.080;2023-11-19T12:30:04;9.68;;;7.63;;
39078;SDS011;24829;49.208;12.080;2023-11-19T12:32:40;10.63;;;8.35;;
39078;SDS011;24829;49.208;12.080;2023-11-19T12:35:06;8.70;;;6.03;;
39078;SDS011;24829;49.208;12.080;2023-11-19T12:37:38;7.32;;;6.22;;
39078;SDS011;24829;49.208;12.080;2023-11-19T12:40:18;9.45;;;5.00;;
39078;SDS011;24829;49.208;12.080;2023-11-19T12:42:48;9.30;;;5.70;;
39078;SDS011;24829;49.208;12.080;2023-11-19T12:45:14;8.77;;;5.72;;
39078;SDS011;24829;49.208;12.080;2023-11-19T12:47:41;6.85;;;3.60;;
39078;SDS011;24829;49.208;12.080;2023-11-19T12:50:08;5.85;;;1.73;;
39078;SDS011;24829;49.208;12.080;2023-11-19T12:52:35;4.85;;;1.35;;
39078;SDS011;24829;49.208;12.080;2023-11-19T12:55:02;3.33;;;1.40;;
39078;SDS011;24829;49.208;12.080;2023-11-19T12:57:47;3.63;;;1.20;;
39078;SDS011;24829;49.208;12.080;2023-11-19T13:00:19;6.07;;;1.40;;
39078;SDS011;24829;49.208;12.080;2023-11-19T13:02:50;5.32;;;3.42;;
39078;SDS011;24829;49.208;12.080;2023-11-19T13:05:30;6.38;;;2.47;;
39078;SDS011;24829;49.208;12.080;2023-11-19T13:08:07;4.15;;;1.13;;
39078;SDS011;24829;49.208;12.080;2023-11-19T13:10:54;5.93;;;1.92;;
39078;SDS011;24829;49.208;12.080;2023-11-19T13:13:19;3.10;;;1.10;;
39078;SDS011;24829;49.208;12.080;2023-11-19T13:15:45;3.17;;;1.00;;
39078;SDS011;24829;49.208;12.080;2023-11-19T13:18:11;5.20;;;2.35;;
39078;SDS011;24829;49.208;12.080;2023-11-19T13:20:38;8.63;;;5.43;;
39078;SDS011;24829;49.208;12.080;2023-11-19T13:23:04;7.07;;;2.38;;
39078;SDS011;24829;49.208;12.080;2023-11-19T13:25:31;2.58;;;1.33;;
39078;SDS011;24829;49.208;12.080;2023-11-19T13:27:58;3.83;;;0.90;;
39078;SDS011;24829;49.208;12.080;2023-11-19T13:30:25;2.30;;;0.80;;
39078;SDS011;24829;49.208;12.080;2023-11-19T13:32:51;4.20;;;1.10;;
39078;SDS011;24829;49.208;12.080;2023-11-19T13:35:17;1.77;;;0.60;;
39078;SDS011;24829;49.208;12.080;2023-11-19T13:37:44;2.00;;;0.70;;
39078;SDS011;24829;49.208;12.080;2023-11-19T13:40:10;4.07;;;1.20;;
39078;SDS011;24829;49.208;12.080;2023-11-19T13:42:38;1.83;;;0.63;;
39078;SDS011;24829;49.208;12.080;2023-11-19T13:45:07;1.92;;;0.70;;
39078;SDS011;24829;49.208;12.080;2023-11-19T13:47:36;4.85;;;0.65;;
39078;SDS011;24829;49.208;12.080;2023-11-19T13:50:06;4.32;;;0.80;;
39078;SDS011;24829;49.208;12.080;2023-11-19T13:52:36;1.45;;;0.60;;
39078;SDS011;24829;49.208;12.080;2023-11-19T13:55:05;2.45;;;0.70;;
39078;SDS011;24829;49.208;12.080;2023-11-19T13:57:33;2.25;;;0.60;;
39078;SDS011;24829;49.208;12.080;2023-11-19T13:59:59;2.80;;;0.55;;
39078;SDS011;24829;49.208;12.080;2023-11-19T14:02:30;2.83;;;0.80;;
39078;SDS011;24829;49.208;12.080;2023-11-19T14:04:55;1.58;;;0.68;;
39078;SDS011;24829;49.208;12.080;2023-11-19T14:07:21;2.08;;;0.45;;
39078;SDS011;24829;49.208;12.080;2023-11-19T14:09:46;1.70;;;0.60;;
39078;SDS011;24829;49.208;12.080;2023-11-19T14:12:12;3.08;;;0.70;;
39078;SDS011;24829;49.208;12.080;2023-11-19T14:14:38;3.55;;;0.50;;
39078;SDS011;24829;49.208;12.080;2023-11-19T14:17:04;2.65;;;0.68;;
39078;SDS011;24829;49.208;12.080;2023-11-19T14:19:30;4.30;;;1.13;;
39078;SDS011;24829;49.208;12.080;2023-11-19T14:21:55;1.67;;;0.50;;
39078;SDS011;24829;49.208;12.080;2023-11-19T14:24:21;1.90;;;0.77;;
39078;SDS011;24829;49.208;12.080;2023-11-19T14:26:47;4.35;;;1.33;;
39078;SDS011;24829;49.208;12.080;2023-11-19T14:29:14;2.05;;;1.35;;
39078;SDS011;24829;49.208;12.080;2023-11-19T14:31:39;7.40;;;4.95;;
39078;SDS011;24829;49.208;12.080;2023-11-19T14:34:05;4.63;;;2.03;;
39078;SDS011;24829;49.208;12.080;2023-11-19T14:36:30;2.78;;;2.10;;
39078;SDS011;24829;49.208;12.080;2023-11-19T14:38:56;1.77;;;0.70;;
39078;SDS011;24829;49.208;12.080;2023-11-19T14:41:23;2.13;;;0.60;;
39078;SDS011;24829;49.208;12.080;2023-11-19T14:43:49;4.38;;;1.70;;
39078;SDS011;24829;49.208;12.080;2023-11-19T14:46:15;2.78;;;0.80;;
39078;SDS011;24829;49.208;12.080;2023-11-19T14:48:41;2.08;;;0.65;;
39078;SDS011;24829;49.208;12.080;2023-11-19T14:51:06;2.65;;;0.80;;